createdAt,value
2023-01-27T00:01:10.846Z,66.37
2023-01-27T00:03:38.939Z,66.71
2023-01-27T00:06:11.958Z,66.77
2023-01-27T00:08:40.223Z,66.80
2023-01-27T00:11:26.407Z,66.87
2023-01-27T00:13:56.631Z,67.45
2023-01-27T00:16:25.110Z,67.05
2023-01-27T00:18:53.431Z,67.00
2023-01-27T00:21:39.133Z,66.72
2023-01-27T00:24:25.407Z,66.99
2023-01-27T00:26:53.701Z,67.34
2023-01-27T00:29:23.763Z,67.28
2023-01-27T00:32:10.769Z,66.60
2023-01-27T00:34:41.456Z,66.97
2023-01-27T00:37:09.460Z,66.79
2023-01-27T00:39:38.661Z,67.00
2023-01-27T00:42:06.946Z,67.04
2023-01-27T00:44:38.595Z,66.56
2023-01-27T00:47:06.909Z,66.54
2023-01-27T00:49:34.878Z,66.06
2023-01-27T00:52:03.021Z,65.86
2023-01-27T00:54:31.577Z,65.65
2023-01-27T00:56:59.629Z,65.48
2023-01-27T00:59:28.726Z,65.33
2023-01-27T01:01:58.105Z,65.14
2023-01-27T01:04:26.344Z,65.03
2023-01-27T01:06:54.378Z,64.89
2023-01-27T01:09:22.526Z,64.61
2023-01-27T01:11:50.579Z,64.99
2023-01-27T01:14:18.479Z,64.98
2023-01-27T01:16:46.521Z,64.87
2023-01-27T01:19:15.813Z,64.53
2023-01-27T01:21:43.782Z,64.08
2023-01-27T01:24:11.796Z,63.66
2023-01-27T01:26:39.825Z,63.95
2023-01-27T01:29:07.853Z,63.64
2023-01-27T01:31:35.853Z,63.43
2023-01-27T01:34:05.528Z,64.00
2023-01-27T01:36:35.026Z,63.97
2023-01-27T01:39:06.392Z,63.86
2023-01-27T01:41:34.537Z,63.62
2023-01-27T01:44:20.934Z,63.71
2023-01-27T01:46:48.996Z,62.97
2023-01-27T01:49:19.825Z,63.16
2023-01-27T01:51:53.727Z,62.78
2023-01-27T01:54:27.141Z,62.79
2023-01-27T01:57:03.389Z,63.18
2023-01-27T01:59:35.036Z,63.22
2023-01-27T02:02:08.209Z,63.06
2023-01-27T02:04:41.557Z,63.55
2023-01-27T02:07:15.766Z,63.38
2023-01-27T02:09:44.266Z,63.10
2023-01-27T02:12:12.501Z,62.33
2023-01-27T02:14:41.223Z,62.24
2023-01-27T02:17:10.417Z,61.34
2023-01-27T02:19:46.041Z,61.01
2023-01-27T02:22:25.571Z,60.80
2023-01-27T02:25:01.284Z,60.49
2023-01-27T02:27:32.978Z,60.34
2023-01-27T02:30:01.227Z,60.58
2023-01-27T02:32:29.223Z,60.19
2023-01-27T02:34:58.421Z,60.05
2023-01-27T02:37:27.371Z,59.67
2023-01-27T02:39:57.533Z,59.79
2023-01-27T02:42:25.605Z,60.32
2023-01-27T02:44:55.129Z,59.91
2023-01-27T02:47:23.499Z,60.02
2023-01-27T02:49:52.029Z,60.26
2023-01-27T02:52:20.024Z,60.23
2023-01-27T02:54:48.045Z,60.47
2023-01-27T02:57:16.257Z,60.08
2023-01-27T02:59:57.688Z,59.50
2023-01-27T03:02:30.372Z,59.61
2023-01-27T03:04:58.395Z,59.19
2023-01-27T03:07:29.464Z,58.84
2023-01-27T03:09:57.636Z,58.94
2023-01-27T03:12:25.686Z,59.39
2023-01-27T03:15:12.082Z,58.74
2023-01-27T03:17:59.753Z,58.52
2023-01-27T03:20:29.008Z,58.42
2023-01-27T03:22:57.096Z,58.66
2023-01-27T03:25:26.392Z,58.94
2023-01-27T03:27:57.347Z,58.61
2023-01-27T03:30:45.545Z,58.67
2023-01-27T03:33:22.469Z,58.78
2023-01-27T03:36:12.113Z,58.53
2023-01-27T03:39:04.793Z,59.11
2023-01-27T03:41:50.269Z,59.67
2023-01-27T03:44:35.762Z,59.28
2023-01-27T03:47:04.323Z,58.96
2023-01-27T03:49:33.753Z,59.08
2023-01-27T03:52:02.173Z,58.41
2023-01-27T03:54:31.237Z,59.15
2023-01-27T03:57:06.463Z,58.76
2023-01-27T03:59:35.901Z,58.53
2023-01-27T04:02:21.850Z,58.17
2023-01-27T04:05:09.116Z,57.12
2023-01-27T04:07:38.091Z,57.07
2023-01-27T04:10:08.333Z,56.25
2023-01-27T04:12:35.611Z,56.28
2023-01-27T04:15:04.073Z,55.89
2023-01-27T04:17:38.753Z,56.33
2023-01-27T04:20:10.642Z,55.89
2023-01-27T04:22:39.100Z,56.08
2023-01-27T04:25:08.569Z,56.02
2023-01-27T04:27:36.617Z,55.83
2023-01-27T04:30:05.784Z,56.04
2023-01-27T04:32:33.792Z,56.76
2023-01-27T04:35:01.837Z,56.85
2023-01-27T04:37:31.565Z,56.58
2023-01-27T04:39:59.486Z,56.71
2023-01-27T04:42:27.594Z,56.47
2023-01-27T04:44:55.635Z,57.01
2023-01-27T04:47:23.606Z,56.96
2023-01-27T04:49:51.639Z,57.09
2023-01-27T04:52:19.742Z,56.72
2023-01-27T04:54:51.217Z,57.00
2023-01-27T04:57:20.240Z,56.26
2023-01-27T04:59:48.166Z,56.47
2023-01-27T05:02:16.247Z,56.44
2023-01-27T05:04:44.428Z,56.74
2023-01-27T05:07:12.462Z,56.98
2023-01-27T05:09:40.494Z,57.29
2023-01-27T05:12:10.375Z,56.91
2023-01-27T05:14:38.346Z,57.43
2023-01-27T05:17:06.328Z,57.26
2023-01-27T05:19:34.311Z,56.96
2023-01-27T05:22:02.299Z,57.12
2023-01-27T05:24:31.460Z,56.74
2023-01-27T05:26:59.813Z,56.63
2023-01-27T05:29:29.489Z,56.69
2023-01-27T05:31:58.128Z,57.11
2023-01-27T05:34:26.206Z,57.28
2023-01-27T05:36:54.057Z,57.03
2023-01-27T05:39:22.548Z,57.50
2023-01-27T05:41:50.667Z,57.64
2023-01-27T05:44:18.803Z,57.71
2023-01-27T05:46:48.241Z,58.00
2023-01-27T05:49:16.437Z,57.91
2023-01-27T05:51:44.436Z,57.83
2023-01-27T05:54:12.323Z,58.09
2023-01-27T05:56:40.763Z,57.79
2023-01-27T05:59:08.814Z,57.50
2023-01-27T06:01:37.634Z,57.17
2023-01-27T06:04:08.566Z,57.22
2023-01-27T06:06:36.727Z,57.13
2023-01-27T06:09:05.115Z,57.25
2023-01-27T06:11:33.245Z,57.12
2023-01-27T06:14:01.313Z,57.29
2023-01-27T06:16:29.490Z,57.33
2023-01-27T06:18:58.765Z,56.60
2023-01-27T06:21:28.197Z,56.91
2023-01-27T06:23:58.090Z,56.66
2023-01-27T06:26:26.248Z,56.97
2023-01-27T06:28:54.280Z,56.72
2023-01-27T06:31:23.409Z,56.53
2023-01-27T06:33:52.045Z,56.66
2023-01-27T06:36:22.778Z,56.52
2023-01-27T06:38:52.676Z,56.66
2023-01-27T06:41:21.246Z,56.61
2023-01-27T06:43:49.399Z,56.92
2023-01-27T06:46:17.461Z,57.64
2023-01-27T06:48:45.656Z,57.45
2023-01-27T06:51:14.178Z,57.21
2023-01-27T06:53:42.916Z,57.31
2023-01-27T06:56:12.360Z,57.81
2023-01-27T06:58:40.344Z,57.85
2023-01-27T07:01:08.533Z,57.68
2023-01-27T07:03:36.904Z,57.68
2023-01-27T07:06:05.756Z,58.15
2023-01-27T07:08:34.017Z,58.05
2023-01-27T07:11:05.466Z,57.74
2023-01-27T07:13:34.821Z,58.44
2023-01-27T07:16:04.062Z,58.39
2023-01-27T07:18:33.139Z,58.54
2023-01-27T07:21:01.639Z,58.37
2023-01-27T07:23:31.025Z,57.97
2023-01-27T07:26:00.912Z,58.19
2023-01-27T07:28:29.035Z,57.90
2023-01-27T07:31:04.323Z,58.06
2023-01-27T07:33:33.612Z,58.12
2023-01-27T07:36:02.883Z,58.38
2023-01-27T07:38:39.797Z,58.49
2023-01-27T07:41:08.512Z,59.09
2023-01-27T07:43:37.557Z,58.36
2023-01-27T07:46:11.058Z,58.17
2023-01-27T07:48:39.528Z,58.72
2023-01-27T07:51:07.508Z,59.23
2023-01-27T07:53:35.692Z,59.93
2023-01-27T07:56:03.692Z,60.08
2023-01-27T07:58:31.595Z,60.18
2023-01-27T08:01:00.222Z,60.24
2023-01-27T08:03:29.824Z,60.25
2023-01-27T08:05:58.113Z,60.35
2023-01-27T08:08:26.511Z,60.41
2023-01-27T08:10:54.921Z,60.41
2023-01-27T08:13:22.938Z,60.45
2023-01-27T08:15:57.414Z,61.31
2023-01-27T08:18:26.219Z,61.07
2023-01-27T08:20:56.629Z,61.83
2023-01-27T08:23:24.937Z,61.48
2023-01-27T08:25:54.001Z,61.40
2023-01-27T08:28:25.067Z,61.30
2023-01-27T08:30:53.819Z,61.96
2023-01-27T08:33:23.611Z,61.97
2023-01-27T08:35:52.536Z,62.21
2023-01-27T08:38:22.201Z,62.22
2023-01-27T08:40:51.199Z,62.02
2023-01-27T08:43:20.684Z,62.04
2023-01-27T08:45:49.028Z,62.13
2023-01-27T08:48:17.281Z,62.14
2023-01-27T08:50:45.290Z,61.75
2023-01-27T08:53:13.286Z,61.92
2023-01-27T08:55:42.593Z,62.15
2023-01-27T08:58:10.479Z,62.07
2023-01-27T09:00:38.919Z,62.88
2023-01-27T09:03:07.253Z,62.88
2023-01-27T09:05:37.761Z,62.52
2023-01-27T09:08:06.891Z,62.72
2023-01-27T09:10:38.488Z,62.87
2023-01-27T09:13:08.562Z,62.96
2023-01-27T09:15:37.048Z,63.05
2023-01-27T09:18:06.740Z,63.47
2023-01-27T09:20:37.330Z,62.83
2023-01-27T09:23:06.187Z,62.81
2023-01-27T09:25:34.871Z,62.97
2023-01-27T09:28:03.764Z,62.83
2023-01-27T09:30:33.533Z,62.81
2023-01-27T09:33:01.771Z,63.23
2023-01-27T09:35:37.403Z,63.53
2023-01-27T09:38:07.772Z,63.65
2023-01-27T09:40:49.344Z,63.81
2023-01-27T09:43:35.762Z,63.95
2023-01-27T09:46:34.256Z,63.68
2023-01-27T09:49:22.575Z,63.77
2023-01-27T09:52:05.253Z,63.23
2023-01-27T09:54:45.904Z,63.03
2023-01-27T09:57:22.641Z,63.26
2023-01-27T10:00:12.673Z,63.22
2023-01-27T10:03:10.850Z,62.63
2023-01-27T10:05:58.956Z,62.22
2023-01-27T10:08:46.145Z,62.79
2023-01-27T10:11:21.629Z,62.21
2023-01-27T10:14:06.413Z,62.55
2023-01-27T10:16:53.716Z,61.98
2023-01-27T10:19:44.669Z,61.06
2023-01-27T10:22:20.626Z,60.96
2023-01-27T10:25:06.962Z,60.75
2023-01-27T10:27:38.279Z,60.07
2023-01-27T10:30:15.279Z,60.22
2023-01-27T10:32:46.428Z,60.47
2023-01-27T10:35:20.900Z,59.99
2023-01-27T10:37:58.897Z,60.04
2023-01-27T10:40:38.595Z,59.43
2023-01-27T10:43:13.622Z,59.48
2023-01-27T10:45:50.466Z,59.17
2023-01-27T10:48:30.836Z,59.85
2023-01-27T10:51:04.878Z,59.94
2023-01-27T10:53:39.607Z,59.06
2023-01-27T10:56:13.046Z,58.19
2023-01-27T10:58:49.104Z,57.03
2023-01-27T11:01:22.566Z,57.38
2023-01-27T11:03:57.049Z,57.36
2023-01-27T11:06:30.632Z,57.85
2023-01-27T11:09:07.581Z,58.20
2023-01-27T11:11:45.778Z,57.70
2023-01-27T11:14:18.493Z,57.96
2023-01-27T11:16:51.066Z,58.59
2023-01-27T11:19:28.839Z,58.95
2023-01-27T11:22:07.886Z,58.52
2023-01-27T11:24:48.465Z,58.82
2023-01-27T11:27:26.155Z,59.46
2023-01-27T11:29:58.905Z,58.93
2023-01-27T11:32:40.089Z,59.66
2023-01-27T11:35:12.228Z,59.89
2023-01-27T11:37:43.174Z,59.87
2023-01-27T11:40:19.330Z,59.60
2023-01-27T11:42:47.625Z,59.18
2023-01-27T11:45:18.475Z,58.97
2023-01-27T11:47:48.992Z,59.21
2023-01-27T11:50:21.198Z,59.48
2023-01-27T11:52:56.505Z,59.17
2023-01-27T11:55:29.158Z,58.87
2023-01-27T11:58:06.852Z,58.88
2023-01-27T12:00:42.879Z,59.25
2023-01-27T12:03:20.030Z,59.08
2023-01-27T12:05:55.226Z,59.28
2023-01-27T12:08:45.152Z,60.03
2023-01-27T12:11:25.531Z,59.38
2023-01-27T12:13:57.042Z,59.59
2023-01-27T12:16:34.104Z,59.32
2023-01-27T12:19:05.529Z,59.59
2023-01-27T12:21:47.544Z,60.13
2023-01-27T12:24:26.260Z,59.81
2023-01-27T12:26:56.033Z,59.20
2023-01-27T12:29:29.559Z,59.27
2023-01-27T12:32:01.260Z,58.96
2023-01-27T12:34:37.081Z,59.21
2023-01-27T12:37:07.743Z,58.80
2023-01-27T12:39:46.444Z,58.64
2023-01-27T12:42:40.076Z,59.43
2023-01-27T12:45:30.525Z,59.75
2023-01-27T12:48:16.248Z,59.58
2023-01-27T12:50:55.002Z,59.63
2023-01-27T12:53:26.911Z,59.56
2023-01-27T12:56:03.664Z,58.87
2023-01-27T12:58:36.248Z,58.12
2023-01-27T13:01:09.461Z,58.37
2023-01-27T13:03:39.950Z,58.11
2023-01-27T13:06:09.243Z,58.37
2023-01-27T13:08:40.949Z,57.84
2023-01-27T13:11:11.491Z,57.77
2023-01-27T13:13:50.001Z,58.31
2023-01-27T13:16:27.704Z,57.86
2023-01-27T13:18:57.444Z,57.88
2023-01-27T13:21:29.868Z,58.03
2023-01-27T13:24:00.531Z,57.44
2023-01-27T13:26:37.475Z,57.17
2023-01-27T13:29:14.254Z,57.20
2023-01-27T13:31:49.459Z,56.92
2023-01-27T13:34:25.911Z,57.76
2023-01-27T13:37:02.514Z,57.52
2023-01-27T13:39:46.802Z,57.67
2023-01-27T13:42:22.465Z,57.66
2023-01-27T13:45:03.942Z,57.84
2023-01-27T13:47:39.385Z,57.07
2023-01-27T13:50:25.675Z,57.10
2023-01-27T13:52:56.240Z,57.65
2023-01-27T13:55:47.505Z,57.38
2023-01-27T13:58:24.973Z,56.48
2023-01-27T14:01:05.034Z,56.06
2023-01-27T14:03:49.555Z,56.12
2023-01-27T14:06:32.476Z,56.33
2023-01-27T14:09:25.787Z,55.69
2023-01-27T14:12:01.654Z,56.57
2023-01-27T14:14:57.722Z,56.29
2023-01-27T14:17:35.169Z,55.68
2023-01-27T14:20:17.642Z,55.78
2023-01-27T14:22:54.682Z,56.24
2023-01-27T14:25:31.064Z,56.19
2023-01-27T14:28:10.817Z,56.08
2023-01-27T14:30:44.418Z,56.23
2023-01-27T14:33:19.366Z,56.22
2023-01-27T14:35:52.604Z,56.44
2023-01-27T14:38:28.588Z,56.72
2023-01-27T14:41:11.398Z,56.21
2023-01-27T14:43:47.145Z,56.52
2023-01-27T14:46:25.940Z,55.74
2023-01-27T14:49:03.662Z,56.54
2023-01-27T14:51:38.739Z,56.52
2023-01-27T14:54:25.273Z,56.56
2023-01-27T14:57:08.456Z,56.77
2023-01-27T14:59:48.716Z,56.64
2023-01-27T15:02:34.789Z,57.10
2023-01-27T15:05:10.597Z,57.00
2023-01-27T15:07:46.333Z,56.96
2023-01-27T15:10:26.391Z,57.89
2023-01-27T15:13:19.838Z,57.55
2023-01-27T15:16:23.597Z,57.64
2023-01-27T15:19:20.744Z,57.39
2023-01-27T15:22:20.368Z,57.34
2023-01-27T15:25:20.419Z,57.64
2023-01-27T15:27:52.984Z,57.51
2023-01-27T15:30:26.550Z,57.10
2023-01-27T15:32:54.893Z,56.98
2023-01-27T15:35:41.144Z,57.06
2023-01-27T15:38:34.773Z,56.90
2023-01-27T15:41:07.498Z,57.17
2023-01-27T15:43:40.734Z,57.07
2023-01-27T15:46:29.769Z,57.57
2023-01-27T15:49:01.807Z,57.13
2023-01-27T15:51:36.059Z,57.78
2023-01-27T15:54:05.265Z,57.44
2023-01-27T15:56:46.687Z,57.35
2023-01-27T15:59:18.925Z,57.79
2023-01-27T16:01:49.779Z,57.24
2023-01-27T16:04:23.491Z,57.17
2023-01-27T16:06:54.421Z,56.63
2023-01-27T16:09:31.433Z,57.00
2023-01-27T16:12:02.954Z,57.34
2023-01-27T16:14:40.777Z,57.09
2023-01-27T16:17:19.478Z,56.10
2023-01-27T16:19:56.208Z,56.24
2023-01-27T16:22:28.696Z,56.99
2023-01-27T16:25:02.617Z,57.13
2023-01-27T16:27:39.565Z,57.20
2023-01-27T16:30:16.047Z,57.14
2023-01-27T16:32:59.856Z,57.67
2023-01-27T16:35:28.057Z,56.71
2023-01-27T16:38:06.074Z,56.71
2023-01-27T16:40:36.675Z,57.34
2023-01-27T16:43:08.296Z,56.99
2023-01-27T16:45:45.418Z,57.08
2023-01-27T16:48:25.031Z,57.32
2023-01-27T16:50:55.103Z,56.43
2023-01-27T16:53:26.468Z,56.75
2023-01-27T16:56:00.097Z,56.44
2023-01-27T16:58:43.775Z,56.73
2023-01-27T17:01:21.788Z,57.36
2023-01-27T17:03:51.306Z,57.78
2023-01-27T17:06:19.362Z,56.26
2023-01-27T17:08:50.108Z,56.89
2023-01-27T17:11:22.637Z,56.77
2023-01-27T17:13:57.149Z,56.84
2023-01-27T17:16:28.917Z,57.37
2023-01-27T17:19:05.778Z,57.49
2023-01-27T17:21:37.958Z,57.92
2023-01-27T17:24:16.284Z,57.87
2023-01-27T17:26:48.829Z,57.57
2023-01-27T17:29:20.704Z,57.16
2023-01-27T17:31:49.192Z,57.36
2023-01-27T17:34:20.820Z,57.30
2023-01-27T17:37:16.023Z,56.55
2023-01-27T17:39:46.216Z,56.77
2023-01-27T17:42:17.025Z,56.12
2023-01-27T17:44:45.456Z,56.64
2023-01-27T17:47:16.777Z,56.04
2023-01-27T17:49:46.120Z,56.99
2023-01-27T17:52:19.594Z,56.90
2023-01-27T17:54:50.150Z,56.26
2023-01-27T17:57:23.589Z,56.51
2023-01-27T18:00:00.069Z,56.92
2023-01-27T18:02:31.168Z,56.55
2023-01-27T18:05:03.078Z,56.08
2023-01-27T18:07:32.524Z,56.46
2023-01-27T18:10:01.922Z,56.67
2023-01-27T18:12:33.962Z,56.52
2023-01-27T18:15:47.211Z,56.85
2023-01-27T18:18:24.144Z,56.53
2023-01-27T18:21:05.020Z,56.55
2023-01-27T18:23:36.354Z,56.70
2023-01-27T18:26:18.589Z,56.38
2023-01-27T18:28:51.313Z,56.22
2023-01-27T18:31:23.841Z,56.59
2023-01-27T18:34:00.373Z,56.30
2023-01-27T18:36:35.717Z,55.82
2023-01-27T18:39:05.344Z,55.57
2023-01-27T18:41:38.251Z,55.04
2023-01-27T18:44:08.468Z,55.17
2023-01-27T18:46:36.442Z,55.09
2023-01-27T18:49:06.971Z,54.80
2023-01-27T18:51:35.595Z,55.45
2023-01-27T18:54:04.891Z,56.16
2023-01-27T18:56:35.476Z,55.90
2023-01-27T18:59:03.983Z,55.39
2023-01-27T19:01:32.108Z,55.01
2023-01-27T19:04:00.887Z,54.49
2023-01-27T19:06:28.742Z,54.57
2023-01-27T19:08:56.705Z,54.24
2023-01-27T19:11:25.052Z,54.08
2023-01-27T19:13:54.608Z,53.55
2023-01-27T19:16:23.857Z,54.51
2023-01-27T19:18:51.802Z,53.95
2023-01-27T19:21:19.825Z,54.48
2023-01-27T19:23:49.585Z,53.99
2023-01-27T19:26:19.652Z,53.74
2023-01-27T19:28:50.215Z,54.41
2023-01-27T19:31:20.015Z,53.18
2023-01-27T19:33:48.629Z,53.95
2023-01-27T19:36:22.628Z,53.59
2023-01-27T19:38:53.966Z,52.52
2023-01-27T19:41:22.179Z,53.50
2023-01-27T19:43:50.790Z,53.53
2023-01-27T19:46:23.546Z,52.51
2023-01-27T19:48:52.037Z,53.82
2023-01-27T19:51:20.334Z,53.78
2023-01-27T19:53:48.492Z,53.92
2023-01-27T19:56:18.898Z,54.00
2023-01-27T19:58:49.952Z,54.36
2023-01-27T20:01:18.139Z,54.11
2023-01-27T20:03:47.898Z,53.18
2023-01-27T20:06:18.070Z,52.56
2023-01-27T20:08:46.356Z,52.46
2023-01-27T20:11:31.577Z,52.40
2023-01-27T20:14:00.771Z,52.37
2023-01-27T20:16:29.292Z,52.23
2023-01-27T20:19:00.163Z,52.28
2023-01-27T20:21:28.714Z,52.82
2023-01-27T20:23:57.158Z,52.80
2023-01-27T20:26:25.448Z,52.84
2023-01-27T20:28:53.555Z,52.84
2023-01-27T20:31:23.755Z,53.01
2023-01-27T20:33:52.196Z,52.09
2023-01-27T20:36:23.560Z,51.83
2023-01-27T20:38:52.751Z,52.32
2023-01-27T20:41:22.679Z,52.64
2023-01-27T20:43:55.681Z,52.78
2023-01-27T20:46:23.819Z,52.86
2023-01-27T20:48:51.908Z,52.66
2023-01-27T20:51:21.400Z,52.51
2023-01-27T20:53:49.516Z,52.36
2023-01-27T20:56:19.365Z,52.00
2023-01-27T20:58:48.630Z,51.83
2023-01-27T21:01:18.076Z,52.65
2023-01-27T21:03:46.195Z,52.41
2023-01-27T21:06:15.903Z,52.33
2023-01-27T21:08:47.596Z,52.81
2023-01-27T21:11:17.811Z,52.56
2023-01-27T21:13:46.350Z,51.83
2023-01-27T21:16:15.193Z,51.81
2023-01-27T21:18:44.155Z,51.02
2023-01-27T21:21:23.442Z,51.60
2023-01-27T21:23:53.543Z,51.24
2023-01-27T21:26:47.559Z,51.52
2023-01-27T21:29:15.729Z,52.20
2023-01-27T21:31:44.018Z,52.16
2023-01-27T21:34:12.395Z,52.51
2023-01-27T21:36:40.732Z,51.99
2023-01-27T21:39:10.167Z,52.21
2023-01-27T21:41:57.682Z,52.09
2023-01-27T21:44:44.957Z,52.46
2023-01-27T21:47:15.013Z,52.92
2023-01-27T21:50:04.190Z,52.34
2023-01-27T21:52:35.101Z,51.36
2023-01-27T21:55:08.611Z,52.76
2023-01-27T21:57:36.640Z,52.60
2023-01-27T22:00:06.581Z,52.53
2023-01-27T22:02:42.110Z,51.86
2023-01-27T22:05:11.544Z,52.61
2023-01-27T22:07:40.607Z,53.44
2023-01-27T22:10:16.509Z,52.74
2023-01-27T22:12:45.193Z,51.79
2023-01-27T22:15:15.875Z,52.41
2023-01-27T22:17:44.920Z,52.05
2023-01-27T22:20:15.556Z,52.49
2023-01-27T22:22:43.583Z,51.88
2023-01-27T22:25:17.258Z,52.35
2023-01-27T22:27:47.188Z,52.20
2023-01-27T22:30:17.805Z,52.29
2023-01-27T22:32:46.913Z,52.10
2023-01-27T22:35:18.154Z,52.04
2023-01-27T22:37:48.869Z,52.37
2023-01-27T22:40:19.007Z,53.10
2023-01-27T22:42:49.676Z,52.03
2023-01-27T22:45:18.411Z,51.97
2023-01-27T22:47:47.148Z,52.12
2023-01-27T22:50:15.603Z,52.64
2023-01-27T22:52:43.845Z,52.62
2023-01-27T22:55:14.143Z,52.70
2023-01-27T22:57:47.803Z,52.38
2023-01-27T23:00:17.228Z,52.41
2023-01-27T23:02:45.966Z,52.26
2023-01-27T23:05:15.772Z,51.94
2023-01-27T23:07:43.905Z,51.72
2023-01-27T23:10:12.794Z,52.15
2023-01-27T23:12:41.056Z,52.33
2023-01-27T23:15:12.616Z,52.68
2023-01-27T23:17:41.581Z,52.63
2023-01-27T23:20:11.367Z,51.98
2023-01-27T23:22:39.388Z,51.52
2023-01-27T23:25:08.521Z,52.40
2023-01-27T23:27:36.679Z,52.89
2023-01-27T23:30:09.044Z,52.47
2023-01-27T23:32:39.104Z,51.50
2023-01-27T23:35:08.499Z,51.90
2023-01-27T23:37:37.762Z,52.15
2023-01-27T23:40:08.469Z,52.30
2023-01-27T23:42:36.653Z,52.10
2023-01-27T23:45:06.231Z,51.79
2023-01-27T23:47:34.429Z,51.89
2023-01-27T23:50:04.672Z,51.69
2023-01-27T23:52:34.871Z,52.09
2023-01-27T23:55:03.184Z,51.72
2023-01-27T23:57:31.448Z,51.57
2023-01-27T23:59:59.427Z,52.09
